Main page
METAR-TAF:

METAR-TAF

Airports :

Gibraltar International Airport

Gibraltar, Gibraltar

latitude: 36-09N, longitude: 005-21W, elevation: 5 m

Current weather observation

The report was made 50 minutes ago, at 00:50 UTC
Wind 2 kt from the Northeast
Temperature 21°C
Humidity 88%
Pressure 1017 hPa
Visibility 10 km or more

METAR: LXGB 220050Z AUTO 04002KT 9999 // SCT190/// 21/19 Q1017

Time: 03:40 (01:40 UTC)

Forecast

The report was made 9 hours and 20 minutes ago, at 16:20 UTC
Forecast valid from 21 at 18 UTC to 21 at 22 UTC
Wind 8 kt from the East/Northeast
Visibility 10 km or more
no clouds below 1500 m and no cumulonimbus
Probability 30%
from 21 at 21 UTC to 21 at 22 UTC
Wind 5 kt from the West

TAF: LXGB 211620Z 2118/2122 07008KT CAVOK PROB30 2121/2122 28005KT

Weather observations and forecasts of more than 4000 airports (METAR and TAF reports).

The available stations are represented by yellow and red dots on the map.

Hover mouse over dot to see the name of the station.

Then click to see weather observations and forecasts.

To change the map : click on the green buttons with a black cross to zoom in, on the green button with a dash to zoom out, or on the green arrows for adjacent maps.


METAR-TAF: